Time;durP1;ratioP1;P1;durP2;ratioP2;P2;SDS_P1;SDS_P2;PMS_P1;PMS_P2;Temp;Humidity;BMP_temperature;BMP_pressure;BME280_temperature;BME280_humidity;BME280_pressure;Samples;Min_cycle;Max_cycle;Signal;HPM_P1;HPM_P2
2021/07/19 00:00:36;;;;;;;12.40;7.05;;;;;;;;;;5133217;27;20062;-82
2021/07/19 00:03:03;;;;;;;11.98;7.30;;;;;;;;;;5131451;27;20524;-82
2021/07/19 00:05:29;;;;;;;15.20;7.57;;;;;;;;;;5132887;27;20035;-80
2021/07/19 00:07:56;;;;;;;12.13;7.25;;;;;;;;;;5131416;27;20122;-83
2021/07/19 00:10:22;;;;;;;15.63;7.35;;;;;;;;;;5132123;27;20481;-83
2021/07/19 00:12:49;;;;;;;18.23;7.80;;;;;;;;;;5132292;27;20039;-82
2021/07/19 00:15:20;;;;;;;12.05;7.57;;;;;;;;;;5131325;27;20050;-82
2021/07/19 00:17:46;;;;;;;14.02;7.80;;;;;;;;;;5132161;27;20043;-82
2021/07/19 00:20:13;;;;;;;16.27;7.80;;;;;;;;;;5132599;27;20039;-83
2021/07/19 00:22:40;;;;;;;17.48;7.38;;;;;;;;;;5131454;27;20114;-82
2021/07/19 00:25:07;;;;;;;17.33;8.43;;;;;;;;;;5132504;27;20435;-82
2021/07/19 00:27:33;;;;;;;14.00;9.07;;;;;;;;;;5131061;27;20051;-83
2021/07/19 00:29:59;;;;;;;15.95;8.60;;;;;;;;;;5131140;27;20042;-82
2021/07/19 00:32:26;;;;;;;16.20;8.50;;;;;;;;;;5131589;27;20077;-82
2021/07/19 00:34:52;;;;;;;16.58;9.30;;;;;;;;;;5133151;27;20043;-82
2021/07/19 00:37:18;;;;;;;20.27;9.25;;;;;;;;;;5131105;27;20488;-82
2021/07/19 00:39:45;;;;;;;19.00;9.82;;;;;;;;;;5131469;27;20043;-82
2021/07/19 00:42:11;;;;;;;18.58;8.93;;;;;;;;;;5131640;27;20466;-81
2021/07/19 00:44:37;;;;;;;15.95;8.73;;;;;;;;;;5132434;27;20039;-82
2021/07/19 00:47:05;;;;;;;17.00;9.32;;;;;;;;;;5131861;28;20490;-82
2021/07/19 00:49:33;;;;;;;15.25;8.35;;;;;;;;;;5133424;28;20039;-82
2021/07/19 00:51:59;;;;;;;16.15;9.73;;;;;;;;;;5130003;28;20164;-82
2021/07/19 00:54:27;;;;;;;15.30;8.57;;;;;;;;;;5131245;28;20063;-82
2021/07/19 00:56:55;;;;;;;17.77;10.05;;;;;;;;;;5131469;28;20043;-82
2021/07/19 00:59:22;;;;;;;20.13;9.80;;;;;;;;;;5132875;27;20074;-83
2021/07/19 01:01:49;;;;;;;19.05;9.27;;;;;;;;;;5132299;28;20039;-83
2021/07/19 01:04:16;;;;;;;21.90;9.68;;;;;;;;;;5125919;28;20122;-82
2021/07/19 01:06:44;;;;;;;17.70;9.35;;;;;;;;;;5131455;28;20041;-83
2021/07/19 01:09:10;;;;;;;16.30;9.45;;;;;;;;;;5132061;28;20049;-83
2021/07/19 01:11:36;;;;;;;22.23;9.88;;;;;;;;;;5131876;28;20039;-82
2021/07/19 01:14:03;;;;;;;18.35;10.38;;;;;;;;;;5145824;27;20178;-82
2021/07/19 01:16:30;;;;;;;19.77;9.93;;;;;;;;;;5132996;28;20043;-82
2021/07/19 01:18:56;;;;;;;19.90;10.30;;;;;;;;;;5132872;28;20074;-83
2021/07/19 01:21:22;;;;;;;19.20;11.00;;;;;;;;;;5132075;28;20035;-83
2021/07/19 01:24:08;;;;;;;18.90;9.82;;;;;;;;;;5132665;28;20092;-82
2021/07/19 01:26:40;;;;;;;23.25;10.18;;;;;;;;;;5132418;28;20494;-82
2021/07/19 01:29:07;;;;;;;19.90;10.30;;;;;;;;;;5130486;28;20378;-84
2021/07/19 01:31:36;;;;;;;16.52;9.68;;;;;;;;;;5132149;28;20039;-82
2021/07/19 01:34:04;;;;;;;18.45;10.57;;;;;;;;;;5130496;28;20145;-82
2021/07/19 01:36:33;;;;;;;20.17;10.32;;;;;;;;;;5132708;28;20076;-79
2021/07/19 01:39:00;;;;;;;18.02;9.63;;;;;;;;;;5127351;28;20406;-84
2021/07/19 01:41:27;;;;;;;20.13;10.43;;;;;;;;;;5132410;28;20039;-81
2021/07/19 01:43:55;;;;;;;15.55;8.98;;;;;;;;;;5132570;27;20066;-81
2021/07/19 01:46:22;;;;;;;15.77;9.63;;;;;;;;;;5130493;28;20122;-81
2021/07/19 01:48:49;;;;;;;16.80;9.45;;;;;;;;;;5132055;28;20073;-81
2021/07/19 01:51:15;;;;;;;16.70;9.98;;;;;;;;;;5129388;28;20043;-81
2021/07/19 01:53:42;;;;;;;16.90;9.80;;;;;;;;;;5123719;28;20122;-81
2021/07/19 01:56:09;;;;;;;18.85;9.70;;;;;;;;;;5131748;27;20112;-81
2021/07/19 01:58:35;;;;;;;17.98;8.98;;;;;;;;;;5134444;27;20066;-78
2021/07/19 02:01:02;;;;;;;15.50;8.90;;;;;;;;;;5135800;27;20036;-81
2021/07/19 02:03:28;;;;;;;17.33;9.75;;;;;;;;;;5135327;27;20039;-81
2021/07/19 02:05:56;;;;;;;22.48;10.10;;;;;;;;;;5135110;27;20047;-81
2021/07/19 02:08:22;;;;;;;18.42;10.23;;;;;;;;;;5135115;27;20039;-81
2021/07/19 02:10:49;;;;;;;16.17;10.15;;;;;;;;;;5135129;27;20039;-80
2021/07/19 02:13:17;;;;;;;17.65;11.02;;;;;;;;;;5128476;27;20541;-81
2021/07/19 02:15:43;;;;;;;15.30;9.70;;;;;;;;;;5134681;27;20043;-80
2021/07/19 02:18:11;;;;;;;17.75;9.63;;;;;;;;;;5134367;27;20502;-80
2021/07/19 02:20:37;;;;;;;12.32;9.50;;;;;;;;;;5136057;27;20069;-81
2021/07/19 02:23:05;;;;;;;19.73;10.15;;;;;;;;;;5134347;27;20053;-79
2021/07/19 02:25:32;;;;;;;15.70;10.05;;;;;;;;;;5135138;27;20088;-80
2021/07/19 02:27:58;;;;;;;17.50;10.77;;;;;;;;;;5135181;27;20444;-81
2021/07/19 02:30:25;;;;;;;19.25;10.60;;;;;;;;;;5134823;27;20039;-81
2021/07/19 02:32:53;;;;;;;16.33;9.85;;;;;;;;;;5135040;27;20091;-81
2021/07/19 02:35:20;;;;;;;15.77;8.88;;;;;;;;;;5133498;27;20043;-82
2021/07/19 02:37:48;;;;;;;16.35;8.57;;;;;;;;;;5134270;27;20043;-81
2021/07/19 02:40:16;;;;;;;19.00;10.48;;;;;;;;;;5134602;27;20039;-81
2021/07/19 02:42:46;;;;;;;19.92;9.98;;;;;;;;;;5135058;27;20066;-81
2021/07/19 02:45:15;;;;;;;15.98;9.65;;;;;;;;;;5134034;27;20039;-81
2021/07/19 02:47:45;;;;;;;19.17;9.50;;;;;;;;;;5125411;27;20035;-77
2021/07/19 02:50:15;;;;;;;17.38;9.18;;;;;;;;;;5132197;27;20407;-81
2021/07/19 02:52:41;;;;;;;14.88;8.88;;;;;;;;;;5114138;27;20067;-81
2021/07/19 02:55:08;;;;;;;17.52;8.50;;;;;;;;;;5133213;27;20393;-82
2021/07/19 02:57:35;;;;;;;16.00;8.20;;;;;;;;;;5134479;27;20057;-82
2021/07/19 03:00:01;;;;;;;14.63;8.30;;;;;;;;;;5134271;27;20046;-81
2021/07/19 03:02:28;;;;;;;17.60;8.70;;;;;;;;;;5133000;27;20046;-80
2021/07/19 03:04:57;;;;;;;15.98;7.88;;;;;;;;;;5134591;27;20043;-81
2021/07/19 03:07:23;;;;;;;14.65;8.20;;;;;;;;;;5133162;27;20047;-81
2021/07/19 03:09:51;;;;;;;16.80;8.50;;;;;;;;;;5133368;27;20375;-81
2021/07/19 03:12:22;;;;;;;17.02;8.02;;;;;;;;;;5133983;27;20536;-81
2021/07/19 03:14:49;;;;;;;18.27;8.57;;;;;;;;;;5131939;27;20047;-81
2021/07/19 03:17:17;;;;;;;13.68;8.88;;;;;;;;;;5122980;27;20047;-81
2021/07/19 03:19:43;;;;;;;14.98;8.63;;;;;;;;;;5134144;27;20035;-81
2021/07/19 03:22:11;;;;;;;16.02;9.02;;;;;;;;;;5133438;27;20123;-81
2021/07/19 03:24:38;;;;;;;17.95;8.90;;;;;;;;;;5134444;27;20054;-81
2021/07/19 03:27:04;;;;;;;14.27;9.32;;;;;;;;;;5132814;27;20055;-81
2021/07/19 03:29:32;;;;;;;17.17;9.35;;;;;;;;;;5133412;27;20035;-81
2021/07/19 03:31:58;;;;;;;16.80;9.95;;;;;;;;;;5132181;27;20036;-81
2021/07/19 03:34:25;;;;;;;20.17;11.30;;;;;;;;;;5134178;27;20439;-79
2021/07/19 03:36:53;;;;;;;28.38;12.32;;;;;;;;;;5129608;27;20038;-81
2021/07/19 03:39:20;;;;;;;20.10;11.07;;;;;;;;;;5132323;27;20043;-81
2021/07/19 03:41:46;;;;;;;17.85;10.25;;;;;;;;;;5132061;27;20080;-81
2021/07/19 03:44:14;;;;;;;19.13;11.30;;;;;;;;;;5134151;27;20045;-81
2021/07/19 03:46:41;;;;;;;15.88;11.27;;;;;;;;;;5132829;27;20162;-81
2021/07/19 03:49:07;;;;;;;20.80;11.25;;;;;;;;;;5133944;27;20127;-81
2021/07/19 03:51:34;;;;;;;25.30;12.13;;;;;;;;;;5114980;27;20369;-81
2021/07/19 03:54:04;;;;;;;21.15;11.88;;;;;;;;;;5133885;27;20538;-82
2021/07/19 03:56:31;;;;;;;22.42;10.95;;;;;;;;;;5132979;27;20482;-82
2021/07/19 03:58:58;;;;;;;20.83;11.50;;;;;;;;;;5133757;27;20039;-82
2021/07/19 04:01:24;;;;;;;22.75;12.27;;;;;;;;;;5132528;27;20047;-82
2021/07/19 04:03:54;;;;;;;24.02;12.73;;;;;;;;;;5131502;27;20115;-82
2021/07/19 04:06:22;;;;;;;17.08;10.82;;;;;;;;;;5131666;27;20053;-83
2021/07/19 04:08:49;;;;;;;21.17;12.55;;;;;;;;;;5136539;27;20047;-83
2021/07/19 04:11:16;;;;;;;17.98;11.85;;;;;;;;;;5134841;27;20031;-83
2021/07/19 04:13:44;;;;;;;19.52;11.40;;;;;;;;;;5134322;27;20035;-82
2021/07/19 04:16:14;;;;;;;19.10;11.77;;;;;;;;;;5134127;27;20482;-83
2021/07/19 04:18:40;;;;;;;20.33;11.48;;;;;;;;;;5134851;27;20031;-83
2021/07/19 04:21:07;;;;;;;22.90;11.13;;;;;;;;;;5137718;27;20071;-82
2021/07/19 04:23:33;;;;;;;17.52;10.57;;;;;;;;;;5135185;27;20114;-81
2021/07/19 04:26:06;;;;;;;16.03;9.97;;;;;;;;;;5136787;27;20402;-82
2021/07/19 04:28:34;;;;;;;16.58;10.15;;;;;;;;;;5134028;27;20111;-81
2021/07/19 04:31:00;;;;;;;24.98;10.50;;;;;;;;;;5135264;27;20117;-80
2021/07/19 04:33:27;;;;;;;18.67;9.00;;;;;;;;;;5132417;27;20053;-84
2021/07/19 04:35:53;;;;;;;17.58;8.65;;;;;;;;;;5132612;27;20039;-80
2021/07/19 04:38:23;;;;;;;17.52;8.43;;;;;;;;;;5111818;28;20036;-75
2021/07/19 04:40:54;;;;;;;14.88;8.10;;;;;;;;;;5131210;27;20079;-78
2021/07/19 04:43:23;;;;;;;18.42;7.85;;;;;;;;;;5125485;28;20050;-78
2021/07/19 04:45:51;;;;;;;19.88;8.35;;;;;;;;;;5131532;28;20043;-81
2021/07/19 04:48:17;;;;;;;21.13;7.15;;;;;;;;;;5144351;27;20028;-83
2021/07/19 04:50:44;;;;;;;21.55;6.65;;;;;;;;;;5112413;28;20043;-85
2021/07/19 04:53:11;;;;;;;13.20;6.40;;;;;;;;;;5119573;28;20040;-81
2021/07/19 04:55:38;;;;;;;23.48;7.30;;;;;;;;;;5135947;28;20046;-81
2021/07/19 04:58:07;;;;;;;17.75;6.80;;;;;;;;;;5132208;28;20031;-82
2021/07/19 05:00:35;;;;;;;17.60;6.55;;;;;;;;;;5132415;27;20043;-81
2021/07/19 05:03:04;;;;;;;16.73;6.15;;;;;;;;;;5151046;27;20043;-81
2021/07/19 05:05:31;;;;;;;14.35;5.72;;;;;;;;;;5132188;28;20043;-84
2021/07/19 05:07:58;;;;;;;12.45;5.65;;;;;;;;;;5151509;27;20059;-84
2021/07/19 05:10:26;;;;;;;11.70;5.20;;;;;;;;;;5120073;28;20039;-76
2021/07/19 05:12:54;;;;;;;11.95;5.63;;;;;;;;;;5113882;28;20088;-83
2021/07/19 05:15:20;;;;;;;10.48;5.13;;;;;;;;;;5113701;28;20039;-87
2021/07/19 05:17:47;;;;;;;16.35;5.00;;;;;;;;;;5130569;28;20459;-78
2021/07/19 05:20:14;;;;;;;11.68;4.78;;;;;;;;;;5131485;28;20114;-84
2021/07/19 05:22:51;;;;;;;15.75;5.00;;;;;;;;;;5131259;28;20082;-84
2021/07/19 05:25:25;;;;;;;12.35;5.43;;;;;;;;;;5132943;28;20035;-83
2021/07/19 05:28:04;;;;;;;16.85;5.20;;;;;;;;;;5133030;28;20399;-83
2021/07/19 05:30:31;;;;;;;10.52;5.30;;;;;;;;;;5132408;27;20363;-83
2021/07/19 05:32:57;;;;;;;13.05;5.20;;;;;;;;;;5135785;27;20039;-83
2021/07/19 05:35:23;;;;;;;14.88;4.97;;;;;;;;;;5138174;27;20066;-84
2021/07/19 05:37:50;;;;;;;14.35;4.50;;;;;;;;;;5135661;27;20046;-84
2021/07/19 05:40:17;;;;;;;12.68;4.55;;;;;;;;;;5137127;27;20043;-84
2021/07/19 05:42:43;;;;;;;14.82;4.90;;;;;;;;;;5136288;27;20036;-84
2021/07/19 05:45:10;;;;;;;11.98;4.55;;;;;;;;;;5137151;27;20043;-84
2021/07/19 05:47:37;;;;;;;11.02;4.80;;;;;;;;;;5128433;27;20035;-82
2021/07/19 05:50:04;;;;;;;11.90;5.13;;;;;;;;;;5136501;27;20118;-83
2021/07/19 05:52:30;;;;;;;10.73;4.35;;;;;;;;;;5117818;27;20043;-83
2021/07/19 05:54:56;;;;;;;12.88;4.82;;;;;;;;;;5136590;27;20050;-83
2021/07/19 05:57:29;;;;;;;15.60;4.72;;;;;;;;;;5135635;27;20039;-84
2021/07/19 05:59:56;;;;;;;15.13;4.78;;;;;;;;;;5135338;27;20138;-83
2021/07/19 06:02:27;;;;;;;13.23;5.50;;;;;;;;;;5136560;27;20039;-83
2021/07/19 06:04:54;;;;;;;16.70;4.93;;;;;;;;;;5123262;27;20105;-83
2021/07/19 06:07:21;;;;;;;14.27;4.63;;;;;;;;;;5115272;28;20394;-83
2021/07/19 06:09:47;;;;;;;12.15;5.18;;;;;;;;;;5115264;28;20071;-83
2021/07/19 06:12:13;;;;;;;14.70;4.40;;;;;;;;;;5115574;28;20043;-83
2021/07/19 06:14:40;;;;;;;12.30;4.78;;;;;;;;;;5130852;27;20043;-82
2021/07/19 06:17:06;;;;;;;15.23;5.13;;;;;;;;;;5115827;28;20059;-83
2021/07/19 06:19:32;;;;;;;11.68;4.88;;;;;;;;;;5115156;28;20478;-82
2021/07/19 06:21:59;;;;;;;14.63;4.85;;;;;;;;;;5115561;28;20043;-83
2021/07/19 06:24:25;;;;;;;13.80;5.00;;;;;;;;;;5131181;27;20144;-83
2021/07/19 06:26:51;;;;;;;11.25;4.47;;;;;;;;;;5114277;28;20067;-83
2021/07/19 06:29:18;;;;;;;11.93;4.78;;;;;;;;;;5131313;27;20189;-83
2021/07/19 06:31:44;;;;;;;11.77;4.95;;;;;;;;;;5130613;27;20075;-83
2021/07/19 06:34:10;;;;;;;11.63;4.60;;;;;;;;;;5131802;27;20036;-82
2021/07/19 06:36:37;;;;;;;10.52;4.53;;;;;;;;;;5131693;27;20043;-82
2021/07/19 06:39:05;;;;;;;12.32;4.30;;;;;;;;;;5135859;27;20126;-83
2021/07/19 06:41:31;;;;;;;13.77;5.13;;;;;;;;;;5117622;27;20448;-83
2021/07/19 06:43:58;;;;;;;13.13;4.88;;;;;;;;;;5113787;28;20114;-83
2021/07/19 06:46:24;;;;;;;10.93;4.70;;;;;;;;;;5114048;28;20054;-83
2021/07/19 06:48:51;;;;;;;10.35;3.83;;;;;;;;;;5130315;27;20050;-83
2021/07/19 06:51:17;;;;;;;8.35;3.80;;;;;;;;;;5130965;27;20031;-82
2021/07/19 06:53:43;;;;;;;13.88;4.00;;;;;;;;;;5113450;27;20475;-83
2021/07/19 06:56:09;;;;;;;12.18;3.95;;;;;;;;;;5113677;28;20523;-83
2021/07/19 06:58:35;;;;;;;12.18;4.35;;;;;;;;;;5114403;28;20039;-82
2021/07/19 07:01:02;;;;;;;10.20;3.85;;;;;;;;;;5113583;28;20050;-83
2021/07/19 07:03:28;;;;;;;10.82;4.00;;;;;;;;;;5114352;28;20229;-86
2021/07/19 07:05:54;;;;;;;12.10;4.63;;;;;;;;;;5114259;28;20544;-84
2021/07/19 07:08:20;;;;;;;12.88;4.45;;;;;;;;;;5113674;28;20055;-84
2021/07/19 07:10:49;;;;;;;13.23;4.35;;;;;;;;;;5117918;27;20051;-82
2021/07/19 07:13:15;;;;;;;13.25;4.18;;;;;;;;;;5114259;28;20036;-82
2021/07/19 07:15:41;;;;;;;16.10;5.07;;;;;;;;;;5112919;28;20046;-84
2021/07/19 07:18:08;;;;;;;7.70;4.32;;;;;;;;;;5115543;27;20418;-78
2021/07/19 07:20:34;;;;;;;10.50;4.50;;;;;;;;;;5128800;27;20043;-80
2021/07/19 07:23:01;;;;;;;15.10;5.25;;;;;;;;;;5134796;27;20038;-79
2021/07/19 07:25:28;;;;;;;8.55;4.38;;;;;;;;;;5138520;27;20038;-80
2021/07/19 07:27:54;;;;;;;12.50;4.15;;;;;;;;;;5131870;27;20561;-81
2021/07/19 07:30:20;;;;;;;9.68;4.25;;;;;;;;;;5133905;27;20467;-79
2021/07/19 07:32:47;;;;;;;15.05;4.80;;;;;;;;;;5113703;27;20403;-77
2021/07/19 07:35:13;;;;;;;10.43;4.90;;;;;;;;;;5152878;27;20042;-77
2021/07/19 07:37:40;;;;;;;9.73;4.30;;;;;;;;;;5133623;27;20046;-75
2021/07/19 07:40:07;;;;;;;12.02;4.85;;;;;;;;;;5133254;27;20039;-81
2021/07/19 07:42:33;;;;;;;9.57;4.38;;;;;;;;;;5132655;27;20494;-82
2021/07/19 07:44:59;;;;;;;10.45;4.65;;;;;;;;;;5131804;27;20440;-82
2021/07/19 07:47:26;;;;;;;8.25;4.40;;;;;;;;;;5134330;27;20482;-82
2021/07/19 07:49:53;;;;;;;12.65;4.60;;;;;;;;;;5131259;27;20043;-77
2021/07/19 07:52:19;;;;;;;10.75;4.38;;;;;;;;;;5131783;27;20418;-80
2021/07/19 07:54:46;;;;;;;12.32;4.50;;;;;;;;;;5132743;27;20090;-78
2021/07/19 07:57:12;;;;;;;8.23;4.32;;;;;;;;;;5115528;27;20112;-79
2021/07/19 07:59:39;;;;;;;9.90;4.18;;;;;;;;;;5128773;27;20047;-78
2021/07/19 08:02:05;;;;;;;12.40;4.55;;;;;;;;;;5112227;28;20060;-78
2021/07/19 08:04:31;;;;;;;10.73;3.95;;;;;;;;;;5128329;27;20054;-79
2021/07/19 08:06:58;;;;;;;8.30;3.72;;;;;;;;;;5128386;27;20040;-79
2021/07/19 08:09:25;;;;;;;12.60;4.22;;;;;;;;;;5128669;27;20048;-79
2021/07/19 08:11:51;;;;;;;11.70;4.40;;;;;;;;;;5124625;27;20039;-78
2021/07/19 08:14:17;;;;;;;10.30;3.90;;;;;;;;;;5133051;27;20047;-86
2021/07/19 08:16:43;;;;;;;7.63;3.35;;;;;;;;;;5131551;27;20123;-80
2021/07/19 08:19:10;;;;;;;13.95;3.30;;;;;;;;;;5114667;27;20051;-77
2021/07/19 08:21:37;;;;;;;9.57;3.90;;;;;;;;;;5132440;27;20084;-83
2021/07/19 08:24:03;;;;;;;11.60;4.20;;;;;;;;;;5131414;27;20114;-82
2021/07/19 08:26:29;;;;;;;9.40;3.95;;;;;;;;;;5114922;27;20118;-78
2021/07/19 08:28:56;;;;;;;9.68;4.05;;;;;;;;;;5125158;27;20390;-77
2021/07/19 08:31:23;;;;;;;11.25;3.33;;;;;;;;;;5131921;27;20091;-76
2021/07/19 08:33:50;;;;;;;6.72;2.97;;;;;;;;;;5131809;27;20407;-75
2021/07/19 08:36:16;;;;;;;10.85;4.25;;;;;;;;;;5131941;27;20096;-77
2021/07/19 08:38:42;;;;;;;8.65;3.33;;;;;;;;;;5133075;27;20040;-76
2021/07/19 08:41:09;;;;;;;8.57;3.40;;;;;;;;;;5131624;27;20118;-79
2021/07/19 08:43:36;;;;;;;8.32;3.63;;;;;;;;;;5131238;27;20478;-80
2021/07/19 08:46:02;;;;;;;12.32;4.32;;;;;;;;;;5131435;28;20039;-79
2021/07/19 08:48:28;;;;;;;10.63;3.53;;;;;;;;;;5131696;28;20061;-80
2021/07/19 08:50:56;;;;;;;10.93;3.47;;;;;;;;;;5113671;28;20054;-77
2021/07/19 08:53:22;;;;;;;9.82;3.85;;;;;;;;;;5132093;28;20066;-80
2021/07/19 08:55:50;;;;;;;8.05;3.40;;;;;;;;;;5132012;28;20533;-76
2021/07/19 08:58:16;;;;;;;12.35;3.63;;;;;;;;;;5131497;28;20095;-79
2021/07/19 09:00:43;;;;;;;10.35;3.75;;;;;;;;;;5131701;28;20035;-79
2021/07/19 09:03:10;;;;;;;11.00;4.30;;;;;;;;;;5131652;28;20047;-78
2021/07/19 09:05:37;;;;;;;8.50;2.83;;;;;;;;;;5133074;27;20371;-79
2021/07/19 09:08:04;;;;;;;8.63;3.58;;;;;;;;;;5134967;27;20134;-78
2021/07/19 09:10:31;;;;;;;7.70;3.10;;;;;;;;;;5136507;27;20478;-75
2021/07/19 09:12:59;;;;;;;7.82;3.40;;;;;;;;;;5114344;27;20121;-75
2021/07/19 09:15:36;;;;;;;10.07;3.15;;;;;;;;;;5130504;27;20047;-76
2021/07/19 09:18:04;;;;;;;10.68;3.85;;;;;;;;;;5118770;27;20101;-76
2021/07/19 09:20:39;;;;;;;7.25;3.40;;;;;;;;;;5116354;28;20036;-76
2021/07/19 09:23:06;;;;;;;5.55;3.10;;;;;;;;;;5115123;28;20065;-77
2021/07/19 09:25:32;;;;;;;7.32;3.53;;;;;;;;;;5136705;27;20117;-76
2021/07/19 09:28:02;;;;;;;8.20;3.47;;;;;;;;;;5133269;27;20063;-76
2021/07/19 09:30:29;;;;;;;7.47;3.17;;;;;;;;;;5136008;27;20413;-75
2021/07/19 09:32:57;;;;;;;8.02;3.10;;;;;;;;;;5135830;27;20431;-75
2021/07/19 09:35:23;;;;;;;8.40;4.10;;;;;;;;;;5135370;27;20036;-74
2021/07/19 09:37:51;;;;;;;6.63;3.25;;;;;;;;;;5136178;27;20047;-75
2021/07/19 09:40:18;;;;;;;11.57;3.35;;;;;;;;;;5136082;27;20035;-75
2021/07/19 09:42:44;;;;;;;8.32;3.00;;;;;;;;;;5134607;27;20054;-74
2021/07/19 09:45:22;;;;;;;8.50;3.22;;;;;;;;;;5135594;27;20486;-74
2021/07/19 09:47:48;;;;;;;8.73;3.58;;;;;;;;;;5136294;27;20398;-75
2021/07/19 09:50:15;;;;;;;10.25;3.33;;;;;;;;;;5134171;27;20091;-75
2021/07/19 09:52:43;;;;;;;10.52;3.25;;;;;;;;;;5136159;27;20047;-75
2021/07/19 09:55:27;;;;;;;12.10;3.70;;;;;;;;;;5135549;27;20039;-75
2021/07/19 09:57:57;;;;;;;9.35;3.72;;;;;;;;;;5134044;27;20051;-77
2021/07/19 10:00:23;;;;;;;8.48;3.35;;;;;;;;;;5129083;27;20076;-77
2021/07/19 10:02:53;;;;;;;9.48;3.45;;;;;;;;;;5147786;27;20085;-79
2021/07/19 10:05:24;;;;;;;10.00;3.78;;;;;;;;;;5155475;27;20042;-78
2021/07/19 10:07:50;;;;;;;10.05;3.55;;;;;;;;;;5123690;27;20042;-79
2021/07/19 10:10:16;;;;;;;9.80;4.15;;;;;;;;;;5096471;28;20035;-78
2021/07/19 10:12:43;;;;;;;6.13;3.90;;;;;;;;;;5135103;27;20425;-78
2021/07/19 10:15:11;;;;;;;9.43;4.47;;;;;;;;;;5126760;27;20032;-80
2021/07/19 10:17:37;;;;;;;9.27;4.38;;;;;;;;;;5113858;27;20079;-82
2021/07/19 10:20:05;;;;;;;6.63;4.53;;;;;;;;;;5114153;28;20043;-79
2021/07/19 10:22:31;;;;;;;8.32;4.75;;;;;;;;;;5113446;27;20048;-83
2021/07/19 10:24:57;;;;;;;8.63;4.53;;;;;;;;;;5117972;27;20055;-83
2021/07/19 10:27:27;;;;;;;7.63;4.60;;;;;;;;;;5131493;27;20062;-85
2021/07/19 10:29:55;;;;;;;9.10;4.40;;;;;;;;;;5133429;27;20043;-84
2021/07/19 10:32:23;;;;;;;8.82;4.22;;;;;;;;;;5130621;27;20507;-82
2021/07/19 10:34:55;;;;;;;6.03;4.45;;;;;;;;;;5133791;27;20051;-90
2021/07/19 10:37:24;;;;;;;7.38;4.88;;;;;;;;;;5131786;27;20047;-90
2021/07/19 10:40:00;;;;;;;11.25;5.25;;;;;;;;;;5154247;27;20439;-87
2021/07/19 10:42:36;;;;;;;8.18;4.43;;;;;;;;;;5153140;27;20039;-86
2021/07/19 10:45:12;;;;;;;7.50;4.75;;;;;;;;;;5153741;27;20481;-86
2021/07/19 10:47:46;;;;;;;8.93;5.43;;;;;;;;;;5154092;27;20054;-84
2021/07/19 10:50:15;;;;;;;8.20;5.30;;;;;;;;;;5152709;27;20525;-82
2021/07/19 10:52:42;;;;;;;8.48;5.53;;;;;;;;;;5152078;27;20058;-80
2021/07/19 10:55:09;;;;;;;10.85;5.60;;;;;;;;;;5152122;27;20037;-79
2021/07/19 10:57:44;;;;;;;9.85;5.65;;;;;;;;;;5154061;27;20046;-82
2021/07/19 11:00:10;;;;;;;9.57;5.72;;;;;;;;;;5142158;27;20046;-84
2021/07/19 11:02:36;;;;;;;9.32;6.93;;;;;;;;;;5141965;27;20402;-77
2021/07/19 11:05:03;;;;;;;12.48;7.07;;;;;;;;;;5134845;27;20470;-80
2021/07/19 11:07:40;;;;;;;10.75;7.30;;;;;;;;;;5134103;27;20062;-80
2021/07/19 11:10:15;;;;;;;9.43;6.53;;;;;;;;;;5133190;27;20106;-79
2021/07/19 11:12:52;;;;;;;11.13;8.20;;;;;;;;;;5134031;27;20058;-80
2021/07/19 11:15:21;;;;;;;9.88;7.95;;;;;;;;;;5134717;27;20045;-80
2021/07/19 11:17:47;;;;;;;11.80;7.55;;;;;;;;;;5133562;27;20125;-79
2021/07/19 11:20:15;;;;;;;9.65;7.53;;;;;;;;;;5112352;27;20074;-85
2021/07/19 11:22:42;;;;;;;13.18;8.27;;;;;;;;;;5113479;28;20043;-84
2021/07/19 11:25:17;;;;;;;9.80;8.07;;;;;;;;;;5112809;28;20061;-84
2021/07/19 11:27:45;;;;;;;8.65;7.28;;;;;;;;;;5114335;28;20212;-83
2021/07/19 11:30:12;;;;;;;12.02;8.00;;;;;;;;;;5113112;28;20036;-84
2021/07/19 11:32:40;;;;;;;11.95;8.60;;;;;;;;;;5114016;28;20096;-84
2021/07/19 11:35:08;;;;;;;13.35;8.90;;;;;;;;;;5113477;28;20039;-84
2021/07/19 11:37:35;;;;;;;11.18;8.45;;;;;;;;;;5114666;28;20051;-85
2021/07/19 11:40:01;;;;;;;13.43;9.10;;;;;;;;;;5114317;27;20093;-85
2021/07/19 11:42:35;;;;;;;11.43;8.82;;;;;;;;;;5113014;28;20437;-85
2021/07/19 11:45:10;;;;;;;10.93;8.25;;;;;;;;;;5130076;27;20125;-83
2021/07/19 11:47:47;;;;;;;12.05;8.63;;;;;;;;;;5129925;27;20043;-83
2021/07/19 11:50:17;;;;;;;14.82;8.50;;;;;;;;;;5129349;27;20044;-84
2021/07/19 11:52:44;;;;;;;10.95;8.40;;;;;;;;;;5113637;28;20036;-83
2021/07/19 11:55:12;;;;;;;12.48;8.65;;;;;;;;;;5113812;27;20032;-83
2021/07/19 11:57:45;;;;;;;11.57;8.00;;;;;;;;;;5131793;27;20047;-82
2021/07/19 12:00:13;;;;;;;14.35;8.95;;;;;;;;;;5122840;27;20039;-82
2021/07/19 12:02:39;;;;;;;9.25;8.25;;;;;;;;;;5120943;27;20118;-81
2021/07/19 12:05:13;;;;;;;12.55;8.38;;;;;;;;;;5121502;27;20397;-76
2021/07/19 12:07:39;;;;;;;15.13;8.13;;;;;;;;;;5127561;27;20031;-82
2021/07/19 12:10:05;;;;;;;13.65;8.25;;;;;;;;;;5123121;27;20039;-81
2021/07/19 12:12:31;;;;;;;14.00;8.82;;;;;;;;;;5124954;27;20550;-83
2021/07/19 12:15:02;;;;;;;10.50;7.57;;;;;;;;;;5132988;27;20066;-83
2021/07/19 12:17:36;;;;;;;12.30;8.52;;;;;;;;;;5145782;27;20055;-81
2021/07/19 12:20:03;;;;;;;14.93;8.88;;;;;;;;;;5127406;27;20039;-82
2021/07/19 12:22:32;;;;;;;13.43;8.45;;;;;;;;;;5123950;27;20136;-82
2021/07/19 12:24:58;;;;;;;13.52;8.30;;;;;;;;;;5140024;27;20031;-82
2021/07/19 12:27:25;;;;;;;14.10;7.97;;;;;;;;;;5123883;27;20059;-82
2021/07/19 12:29:52;;;;;;;14.52;8.85;;;;;;;;;;5128768;27;20039;-83
2021/07/19 12:32:18;;;;;;;14.70;8.15;;;;;;;;;;5125328;27;20031;-82
2021/07/19 12:34:45;;;;;;;12.80;8.45;;;;;;;;;;5127614;27;20359;-83
2021/07/19 12:37:12;;;;;;;12.88;8.38;;;;;;;;;;5128472;27;20035;-82
2021/07/19 12:39:49;;;;;;;12.93;8.55;;;;;;;;;;5125089;27;20067;-83
2021/07/19 12:42:19;;;;;;;12.63;9.07;;;;;;;;;;5139067;27;20101;-83
2021/07/19 12:44:56;;;;;;;14.10;8.38;;;;;;;;;;5124138;27;20035;-82
2021/07/19 12:47:23;;;;;;;13.95;7.97;;;;;;;;;;5124804;28;20059;-80
2021/07/19 12:49:49;;;;;;;11.55;8.35;;;;;;;;;;5126070;28;20104;-85
2021/07/19 12:52:20;;;;;;;13.35;8.02;;;;;;;;;;5117045;28;20032;-84
2021/07/19 12:54:57;;;;;;;10.32;7.50;;;;;;;;;;5133968;27;20091;-85
2021/07/19 12:57:24;;;;;;;11.65;8.45;;;;;;;;;;5119313;28;20059;-85
2021/07/19 12:59:51;;;;;;;13.05;7.63;;;;;;;;;;5120014;28;20039;-85
2021/07/19 13:02:18;;;;;;;13.48;7.75;;;;;;;;;;5125168;28;20036;-86
2021/07/19 13:04:47;;;;;;;13.23;7.68;;;;;;;;;;5115823;28;20085;-85
2021/07/19 13:07:24;;;;;;;14.95;8.68;;;;;;;;;;5127939;28;20031;-84
2021/07/19 13:09:54;;;;;;;13.15;8.23;;;;;;;;;;5144823;27;20035;-86
2021/07/19 13:12:20;;;;;;;13.57;8.35;;;;;;;;;;5123475;28;20043;-83
2021/07/19 13:14:48;;;;;;;12.95;8.80;;;;;;;;;;5142912;27;20512;-83
2021/07/19 13:17:26;;;;;;;15.68;9.35;;;;;;;;;;5124562;28;20039;-77
2021/07/19 13:19:53;;;;;;;13.75;9.48;;;;;;;;;;5125516;27;20043;-88
2021/07/19 13:22:20;;;;;;;14.02;8.95;;;;;;;;;;5120829;28;20040;-86
2021/07/19 13:24:47;;;;;;;11.45;9.05;;;;;;;;;;5116495;28;20039;-83
2021/07/19 13:27:15;;;;;;;14.27;9.57;;;;;;;;;;5117170;27;20051;-84
2021/07/19 13:29:55;;;;;;;16.08;9.60;;;;;;;;;;5127856;27;20040;-84
2021/07/19 13:32:22;;;;;;;11.93;8.48;;;;;;;;;;5124184;27;20031;-84
2021/07/19 13:35:02;;;;;;;11.90;8.60;;;;;;;;;;5119837;28;20505;-89
2021/07/19 13:37:29;;;;;;;13.38;9.07;;;;;;;;;;5130029;28;20046;-82
2021/07/19 13:39:59;;;;;;;12.13;8.68;;;;;;;;;;5114080;28;20043;-83
2021/07/19 13:42:32;;;;;;;17.98;10.57;;;;;;;;;;5119777;28;20161;-83
2021/07/19 13:44:58;;;;;;;13.85;9.82;;;;;;;;;;5129515;28;20046;-82
2021/07/19 13:47:24;;;;;;;11.05;9.23;;;;;;;;;;5122898;28;20405;-81
2021/07/19 13:49:51;;;;;;;13.73;10.60;;;;;;;;;;5114150;28;20491;-83
2021/07/19 13:52:18;;;;;;;16.63;10.93;;;;;;;;;;5112186;28;20078;-83
2021/07/19 13:54:44;;;;;;;16.45;11.18;;;;;;;;;;5115157;27;20520;-84
2021/07/19 13:57:11;;;;;;;14.75;10.63;;;;;;;;;;5130990;27;20068;-84
2021/07/19 13:59:38;;;;;;;14.95;11.10;;;;;;;;;;5117540;27;20474;-83
2021/07/19 14:02:05;;;;;;;13.23;11.15;;;;;;;;;;5135845;27;20039;-83
2021/07/19 14:04:31;;;;;;;18.95;11.23;;;;;;;;;;5113979;28;20063;-83
2021/07/19 14:06:58;;;;;;;15.30;11.88;;;;;;;;;;5131893;27;20043;-83
2021/07/19 14:09:24;;;;;;;14.15;10.68;;;;;;;;;;5134754;27;20542;-83
2021/07/19 14:11:51;;;;;;;17.92;10.40;;;;;;;;;;5136199;27;20035;-83
2021/07/19 14:14:19;;;;;;;13.25;10.40;;;;;;;;;;5136030;27;20043;-83
2021/07/19 14:16:45;;;;;;;13.40;10.27;;;;;;;;;;5131326;27;20063;-80
2021/07/19 14:19:12;;;;;;;13.82;11.30;;;;;;;;;;5135901;27;20067;-83
2021/07/19 14:21:38;;;;;;;15.05;10.57;;;;;;;;;;5135151;27;20039;-82
2021/07/19 14:24:04;;;;;;;12.10;9.95;;;;;;;;;;5133889;27;20047;-83
2021/07/19 14:26:32;;;;;;;15.60;10.02;;;;;;;;;;5129667;27;20497;-82
2021/07/19 14:28:58;;;;;;;14.00;9.52;;;;;;;;;;5120927;27;20138;-82
2021/07/19 14:31:26;;;;;;;13.60;9.68;;;;;;;;;;5135331;27;20043;-82
2021/07/19 14:33:53;;;;;;;11.50;9.50;;;;;;;;;;5134903;27;20119;-83